createdAt,value
2017-08-29T00:02:01.863Z,84.90
2017-08-29T00:04:30.135Z,84.50
2017-08-29T00:06:58.397Z,84.60
2017-08-29T00:09:27.531Z,84.70
2017-08-29T00:11:55.811Z,84.90
2017-08-29T00:14:24.081Z,85.00
2017-08-29T00:16:52.354Z,84.90
2017-08-29T00:19:20.606Z,85.20
2017-08-29T00:21:48.855Z,85.10
2017-08-29T00:24:17.157Z,85.20
2017-08-29T00:26:45.426Z,85.10
2017-08-29T00:29:13.650Z,85.50
2017-08-29T00:31:41.913Z,85.00
2017-08-29T00:34:10.174Z,84.70
2017-08-29T00:36:38.447Z,84.70
2017-08-29T00:39:07.735Z,85.10
2017-08-29T00:41:36.002Z,85.30
2017-08-29T00:44:04.255Z,84.90
2017-08-29T00:46:32.613Z,84.80
2017-08-29T00:49:00.894Z,84.80
2017-08-29T00:51:29.111Z,84.50
2017-08-29T00:53:57.414Z,84.50
2017-08-29T00:56:25.650Z,84.50
2017-08-29T00:58:53.898Z,84.80
2017-08-29T01:01:22.149Z,84.60
2017-08-29T01:03:50.430Z,84.70
2017-08-29T01:06:18.730Z,85.00
2017-08-29T01:08:46.986Z,85.10
2017-08-29T01:11:15.269Z,85.20
2017-08-29T01:13:43.562Z,85.10
2017-08-29T01:16:11.840Z,85.50
2017-08-29T01:18:40.084Z,85.00
2017-08-29T01:21:08.357Z,85.20
2017-08-29T01:23:36.629Z,85.20
2017-08-29T01:26:04.866Z,85.20
2017-08-29T01:28:33.225Z,85.20
2017-08-29T01:31:01.490Z,85.00
2017-08-29T01:33:30.585Z,85.00
2017-08-29T01:35:58.839Z,84.90
2017-08-29T01:38:27.122Z,84.90
2017-08-29T01:40:55.406Z,84.80
2017-08-29T01:43:23.676Z,85.10
2017-08-29T01:45:51.976Z,85.00
2017-08-29T01:48:20.226Z,85.00
2017-08-29T01:50:48.511Z,84.70
2017-08-29T01:53:16.796Z,84.70
2017-08-29T01:55:45.834Z,84.70
2017-08-29T01:58:14.090Z,84.70
2017-08-29T02:00:42.342Z,85.30
2017-08-29T02:03:10.617Z,85.40
2017-08-29T02:05:38.878Z,84.90
2017-08-29T02:08:07.154Z,84.90
2017-08-29T02:10:35.424Z,85.00
2017-08-29T02:13:03.681Z,85.00
2017-08-29T02:15:31.927Z,84.90
2017-08-29T02:18:00.161Z,84.80
2017-08-29T02:20:28.445Z,84.90
2017-08-29T02:22:56.716Z,85.20
2017-08-29T02:25:24.972Z,85.40
2017-08-29T02:27:53.230Z,85.20
2017-08-29T02:30:21.523Z,85.20
2017-08-29T02:32:49.768Z,84.90
2017-08-29T02:35:18.016Z,84.90
2017-08-29T02:37:46.329Z,84.80
2017-08-29T02:40:14.577Z,84.70
2017-08-29T02:42:42.835Z,84.30
2017-08-29T02:45:11.085Z,84.70
2017-08-29T02:47:39.335Z,84.00
2017-08-29T02:50:07.598Z,83.60
2017-08-29T02:52:35.838Z,82.90
2017-08-29T02:55:04.073Z,82.20
2017-08-29T02:57:32.341Z,82.40
2017-08-29T03:00:00.587Z,82.20
2017-08-29T03:02:28.891Z,81.90
2017-08-29T03:04:57.123Z,82.10
2017-08-29T03:07:25.387Z,80.50
2017-08-29T03:09:53.634Z,80.20
2017-08-29T03:12:21.900Z,80.20
2017-08-29T03:14:50.158Z,80.10
2017-08-29T03:17:18.402Z,79.60
2017-08-29T03:19:46.661Z,79.40
2017-08-29T03:22:15.662Z,79.10
2017-08-29T03:24:43.917Z,79.10
2017-08-29T03:27:12.154Z,78.60
2017-08-29T03:29:40.392Z,78.70
2017-08-29T03:32:08.657Z,78.80
2017-08-29T03:34:37.847Z,78.70
2017-08-29T03:37:06.107Z,78.50
2017-08-29T03:39:34.325Z,78.30
2017-08-29T03:42:02.599Z,78.70
2017-08-29T03:44:30.842Z,78.80
2017-08-29T03:46:59.105Z,78.80
2017-08-29T03:49:27.357Z,79.30
2017-08-29T03:51:55.617Z,79.00
2017-08-29T03:54:23.851Z,78.90
2017-08-29T03:56:52.115Z,78.90
2017-08-29T03:59:20.382Z,79.10
2017-08-29T04:01:48.600Z,79.00
2017-08-29T04:04:16.850Z,79.30
2017-08-29T04:06:45.125Z,79.20
2017-08-29T04:09:13.408Z,79.30
2017-08-29T04:11:41.675Z,79.00
2017-08-29T04:14:09.922Z,79.20
2017-08-29T04:16:38.171Z,79.10
2017-08-29T04:19:06.444Z,79.10
2017-08-29T04:21:34.704Z,79.30
2017-08-29T04:24:02.926Z,79.30
2017-08-29T04:26:31.193Z,79.10
2017-08-29T04:28:59.438Z,79.20
2017-08-29T04:31:27.669Z,79.10
2017-08-29T04:33:55.949Z,79.10
2017-08-29T04:36:24.213Z,79.20
2017-08-29T04:38:52.486Z,79.00
2017-08-29T04:41:20.738Z,78.70
2017-08-29T04:43:49.010Z,78.70
2017-08-29T04:46:17.282Z,78.70
2017-08-29T04:48:45.557Z,78.70
2017-08-29T04:51:13.843Z,78.30
2017-08-29T04:53:42.069Z,78.30
2017-08-29T04:56:10.417Z,77.90
2017-08-29T04:58:38.689Z,78.00
2017-08-29T05:01:06.930Z,77.40
2017-08-29T05:03:35.234Z,77.40
2017-08-29T05:06:03.505Z,77.40
2017-08-29T05:08:31.776Z,77.50
2017-08-29T05:11:00.024Z,77.40
2017-08-29T05:13:28.326Z,77.50
2017-08-29T05:15:56.585Z,77.40
2017-08-29T05:18:24.822Z,77.60
2017-08-29T05:20:53.067Z,77.40
2017-08-29T05:23:21.323Z,77.10
2017-08-29T05:25:49.594Z,76.80
2017-08-29T05:28:17.930Z,77.10
2017-08-29T05:30:46.252Z,76.60
2017-08-29T05:33:14.490Z,76.30
2017-08-29T05:35:42.754Z,76.30
2017-08-29T05:38:10.996Z,75.80
2017-08-29T05:40:39.271Z,76.30
2017-08-29T05:43:07.570Z,76.30
2017-08-29T05:45:35.815Z,76.10
2017-08-29T05:48:04.053Z,76.10
2017-08-29T05:50:32.306Z,75.80
2017-08-29T05:53:00.543Z,75.70
2017-08-29T05:55:28.796Z,75.40
2017-08-29T05:57:57.020Z,75.00
2017-08-29T06:00:25.299Z,74.60
2017-08-29T06:02:54.402Z,74.40
2017-08-29T06:05:22.713Z,74.30
2017-08-29T06:07:50.955Z,74.10
2017-08-29T06:10:19.215Z,73.70
2017-08-29T06:12:47.494Z,73.60
2017-08-29T06:15:15.953Z,73.30
2017-08-29T06:17:44.167Z,73.20
2017-08-29T06:20:12.461Z,73.20
2017-08-29T06:22:40.764Z,73.10
2017-08-29T06:25:09.018Z,72.80
2017-08-29T06:27:37.241Z,73.20
2017-08-29T06:30:05.508Z,72.90
2017-08-29T06:32:33.765Z,73.00
2017-08-29T06:35:02.067Z,72.60
2017-08-29T06:37:30.332Z,72.30
2017-08-29T06:39:58.700Z,72.00
2017-08-29T06:42:26.950Z,72.20
2017-08-29T06:44:55.187Z,71.80
2017-08-29T06:47:23.510Z,71.40
2017-08-29T06:49:51.772Z,71.80
2017-08-29T06:52:20.026Z,71.60
2017-08-29T06:54:48.308Z,71.40
2017-08-29T06:57:16.594Z,71.50
2017-08-29T06:59:44.998Z,71.20
2017-08-29T07:02:13.285Z,71.10
2017-08-29T07:04:41.555Z,70.70
2017-08-29T07:07:09.837Z,71.00
2017-08-29T07:09:38.113Z,70.50
2017-08-29T07:12:06.343Z,70.50
2017-08-29T07:14:35.166Z,70.40
2017-08-29T07:17:03.415Z,70.50
2017-08-29T07:19:31.736Z,69.60
2017-08-29T07:21:59.993Z,69.70
2017-08-29T07:24:28.242Z,69.30
2017-08-29T07:26:56.507Z,69.30
2017-08-29T07:29:24.778Z,69.00
2017-08-29T07:31:53.108Z,68.70
2017-08-29T07:34:21.369Z,68.60
2017-08-29T07:36:49.734Z,68.30
2017-08-29T07:39:18.020Z,68.10
2017-08-29T07:41:46.258Z,67.70
2017-08-29T07:44:14.543Z,67.40
2017-08-29T07:46:42.802Z,67.40
2017-08-29T07:49:11.116Z,66.50
2017-08-29T07:51:39.416Z,67.00
2017-08-29T07:54:07.687Z,66.90
2017-08-29T07:56:35.951Z,67.00
2017-08-29T07:59:04.223Z,67.30
2017-08-29T08:01:32.639Z,67.60
2017-08-29T08:04:01.694Z,66.90
2017-08-29T08:06:29.986Z,66.70
2017-08-29T08:08:58.236Z,65.90
2017-08-29T08:11:26.528Z,65.40
2017-08-29T08:13:54.806Z,67.10
2017-08-29T08:16:23.053Z,67.20
2017-08-29T08:18:51.434Z,65.70
2017-08-29T08:21:19.686Z,66.50
2017-08-29T08:23:47.940Z,66.90
2017-08-29T08:26:16.212Z,66.30
2017-08-29T08:28:44.479Z,64.90
2017-08-29T08:31:12.734Z,65.30
2017-08-29T08:33:41.003Z,64.60
2017-08-29T08:36:09.236Z,64.40
2017-08-29T08:38:37.498Z,64.20
2017-08-29T08:41:05.770Z,64.20
2017-08-29T08:43:34.005Z,64.20
2017-08-29T08:46:02.274Z,64.00
2017-08-29T08:48:30.557Z,64.20
2017-08-29T08:50:58.789Z,63.80
2017-08-29T08:53:27.086Z,63.10
2017-08-29T08:55:55.311Z,63.00
2017-08-29T08:58:23.601Z,63.20
2017-08-29T09:00:51.858Z,63.60
2017-08-29T09:03:20.153Z,63.50
2017-08-29T09:05:48.374Z,63.20
2017-08-29T09:08:21.471Z,61.50
2017-08-29T09:10:49.690Z,62.00
2017-08-29T09:13:18.738Z,62.80
2017-08-29T09:15:46.983Z,62.80
2017-08-29T09:18:15.259Z,62.10
2017-08-29T09:20:43.540Z,62.30
2017-08-29T09:23:11.804Z,60.70
2017-08-29T09:25:40.077Z,60.90
2017-08-29T09:28:08.454Z,61.20
2017-08-29T09:30:36.710Z,61.60
2017-08-29T09:33:04.993Z,61.40
2017-08-29T09:35:33.285Z,60.50
2017-08-29T09:38:01.538Z,59.70
2017-08-29T09:40:29.780Z,59.80
2017-08-29T09:42:58.031Z,59.30
2017-08-29T09:45:26.349Z,59.20
2017-08-29T09:47:54.601Z,59.40
2017-08-29T09:50:22.874Z,59.30
2017-08-29T09:52:51.159Z,59.30
2017-08-29T09:55:19.426Z,59.30
2017-08-29T09:57:47.697Z,59.40
2017-08-29T10:00:15.947Z,59.60
2017-08-29T10:02:44.221Z,58.50
2017-08-29T10:05:12.487Z,58.70
2017-08-29T10:07:40.747Z,58.70
2017-08-29T10:10:09.002Z,57.60
2017-08-29T10:12:37.267Z,57.60
2017-08-29T10:15:05.565Z,58.70
2017-08-29T10:17:33.803Z,58.80
2017-08-29T10:20:02.105Z,57.70
2017-08-29T10:22:30.396Z,57.00
2017-08-29T10:24:58.660Z,58.40
2017-08-29T10:27:26.959Z,56.70
2017-08-29T10:29:55.740Z,57.00
2017-08-29T10:32:24.056Z,57.30
2017-08-29T10:34:52.290Z,56.50
2017-08-29T10:37:20.595Z,57.50
2017-08-29T10:39:48.854Z,56.50
2017-08-29T10:42:17.145Z,54.70
2017-08-29T10:44:45.410Z,56.40
2017-08-29T10:47:13.740Z,55.90
2017-08-29T10:49:41.966Z,55.70
2017-08-29T10:52:10.258Z,55.00
2017-08-29T10:54:38.527Z,54.60
2017-08-29T10:57:06.865Z,54.90
2017-08-29T10:59:35.115Z,53.90
2017-08-29T11:02:03.429Z,54.00
2017-08-29T11:04:31.708Z,54.50
2017-08-29T11:06:59.990Z,55.10
2017-08-29T11:09:28.252Z,55.20
2017-08-29T11:11:56.510Z,55.50
2017-08-29T11:14:24.781Z,54.90
2017-08-29T11:16:53.051Z,54.10
2017-08-29T11:19:21.331Z,53.10
2017-08-29T11:21:49.587Z,54.60
2017-08-29T11:24:17.863Z,53.50
2017-08-29T11:26:46.126Z,53.00
2017-08-29T11:29:15.254Z,52.90
2017-08-29T11:31:43.483Z,54.40
2017-08-29T11:34:11.791Z,54.10
2017-08-29T11:36:40.025Z,53.90
2017-08-29T11:39:08.292Z,52.70
2017-08-29T11:41:36.570Z,52.80
2017-08-29T11:44:04.806Z,54.80
2017-08-29T11:46:33.062Z,53.00
2017-08-29T11:49:01.336Z,52.90
2017-08-29T11:51:29.611Z,53.20
2017-08-29T11:53:57.865Z,53.30
2017-08-29T11:56:26.160Z,51.50
2017-08-29T11:58:54.409Z,52.80
2017-08-29T12:01:22.684Z,53.30
2017-08-29T12:03:50.974Z,53.60
2017-08-29T12:06:19.191Z,53.20
2017-08-29T12:08:47.486Z,53.80
2017-08-29T12:11:15.724Z,53.30
2017-08-29T12:13:43.992Z,53.10
2017-08-29T12:16:12.335Z,51.80
2017-08-29T12:18:40.557Z,51.10
2017-08-29T12:21:08.831Z,51.60
2017-08-29T12:23:37.087Z,52.70
2017-08-29T12:26:05.330Z,52.30
2017-08-29T12:28:33.587Z,53.70
2017-08-29T12:31:01.909Z,52.20
2017-08-29T12:33:30.181Z,52.60
2017-08-29T12:35:58.480Z,51.80
2017-08-29T12:38:26.725Z,51.50
2017-08-29T12:40:55.002Z,53.50
2017-08-29T12:43:23.270Z,50.20
2017-08-29T12:45:51.535Z,50.40
2017-08-29T12:48:19.794Z,50.40
2017-08-29T12:50:48.039Z,49.00
2017-08-29T12:53:16.397Z,50.00
2017-08-29T12:55:44.655Z,49.80
2017-08-29T12:58:12.895Z,49.00
2017-08-29T13:00:41.197Z,49.50
2017-08-29T13:03:09.605Z,49.20
2017-08-29T13:05:37.882Z,49.10
2017-08-29T13:08:06.158Z,49.80
2017-08-29T13:10:34.444Z,51.00
2017-08-29T13:13:02.670Z,50.30
2017-08-29T13:15:30.913Z,48.80
2017-08-29T13:17:59.220Z,51.70
2017-08-29T13:20:27.504Z,49.00
2017-08-29T13:22:55.765Z,48.90
2017-08-29T13:25:24.029Z,48.10
2017-08-29T13:27:52.293Z,47.60
2017-08-29T13:30:20.571Z,48.00
2017-08-29T13:32:48.838Z,48.50
2017-08-29T13:35:17.074Z,48.70
2017-08-29T13:37:45.348Z,49.00
2017-08-29T13:40:13.598Z,50.60
2017-08-29T13:42:41.852Z,48.80
2017-08-29T13:45:10.130Z,47.90
2017-08-29T13:47:38.415Z,48.00
2017-08-29T13:50:06.680Z,48.50
2017-08-29T13:52:34.893Z,49.40
2017-08-29T13:55:03.175Z,49.30
2017-08-29T13:57:31.451Z,47.20
2017-08-29T13:59:59.773Z,46.90
2017-08-29T14:02:28.022Z,46.90
2017-08-29T14:04:56.305Z,46.10
2017-08-29T14:07:24.620Z,46.50
2017-08-29T14:09:52.833Z,46.80
2017-08-29T14:12:21.105Z,46.60
2017-08-29T14:14:49.378Z,47.60
2017-08-29T14:17:17.640Z,48.40
2017-08-29T14:19:45.896Z,46.30
2017-08-29T14:22:14.151Z,45.00
2017-08-29T14:24:42.403Z,46.50
2017-08-29T14:27:10.638Z,47.90
2017-08-29T14:29:38.905Z,46.30
2017-08-29T14:32:07.278Z,46.00
2017-08-29T14:34:35.507Z,45.60
2017-08-29T14:37:03.763Z,45.50
2017-08-29T14:39:32.037Z,44.80
2017-08-29T14:42:00.290Z,44.70
2017-08-29T14:44:28.551Z,44.60
2017-08-29T14:47:08.637Z,45.60
2017-08-29T14:49:36.925Z,46.50
2017-08-29T14:52:05.990Z,46.10
2017-08-29T14:54:34.239Z,45.90
2017-08-29T14:57:02.482Z,45.10
2017-08-29T14:59:30.750Z,44.50
2017-08-29T15:01:59.280Z,45.90
2017-08-29T15:04:27.529Z,45.60
2017-08-29T15:06:55.810Z,45.20
2017-08-29T15:09:24.104Z,47.20
2017-08-29T15:11:52.347Z,45.30
2017-08-29T15:14:20.632Z,44.70
2017-08-29T15:16:48.889Z,45.80
2017-08-29T15:19:17.144Z,45.60
2017-08-29T15:21:45.374Z,46.30
2017-08-29T15:24:13.642Z,45.50
2017-08-29T15:26:41.916Z,46.80
2017-08-29T15:29:10.147Z,46.30
2017-08-29T15:31:38.395Z,46.30
2017-08-29T15:34:06.673Z,46.20
2017-08-29T15:36:34.958Z,45.70
2017-08-29T15:39:03.187Z,45.10
2017-08-29T15:41:31.452Z,45.50
2017-08-29T15:44:00.498Z,45.70
2017-08-29T15:46:28.780Z,45.70
2017-08-29T15:48:57.028Z,45.70
2017-08-29T15:51:25.303Z,46.00
2017-08-29T15:53:53.578Z,47.20
2017-08-29T15:56:21.855Z,47.30
2017-08-29T15:58:50.102Z,46.50
2017-08-29T16:01:18.340Z,46.40
2017-08-29T16:03:46.618Z,46.50
2017-08-29T16:06:14.880Z,47.10
2017-08-29T16:08:43.157Z,46.10
2017-08-29T16:11:11.390Z,46.40
2017-08-29T16:13:39.701Z,46.60
2017-08-29T16:16:07.962Z,46.00
2017-08-29T16:18:36.285Z,46.10
2017-08-29T16:21:04.519Z,46.10
2017-08-29T16:23:33.597Z,46.20
2017-08-29T16:26:01.885Z,46.20
2017-08-29T16:28:30.118Z,47.90
2017-08-29T16:30:58.396Z,47.60
2017-08-29T16:33:26.651Z,47.80
2017-08-29T16:35:55.382Z,48.00
2017-08-29T16:38:23.607Z,49.70
2017-08-29T16:40:51.865Z,50.30
2017-08-29T16:43:20.935Z,49.20
2017-08-29T16:45:49.229Z,49.20
2017-08-29T16:48:17.504Z,50.00
2017-08-29T16:50:45.862Z,50.30
2017-08-29T16:53:14.127Z,50.70
2017-08-29T16:55:42.366Z,51.20
2017-08-29T16:58:10.670Z,51.50
2017-08-29T17:00:38.956Z,51.80
2017-08-29T17:03:07.216Z,53.30
2017-08-29T17:05:35.478Z,53.00
2017-08-29T17:08:03.737Z,53.10
2017-08-29T17:10:32.025Z,53.90
2017-08-29T17:13:00.292Z,55.60
2017-08-29T17:15:28.551Z,56.00
2017-08-29T17:17:56.829Z,56.50
2017-08-29T17:20:25.107Z,56.60
2017-08-29T17:22:54.153Z,57.70
2017-08-29T17:25:22.459Z,57.70
2017-08-29T17:27:50.752Z,59.00
2017-08-29T17:30:18.987Z,59.90
2017-08-29T17:32:47.297Z,60.70
2017-08-29T17:35:15.565Z,60.60
2017-08-29T17:37:43.821Z,61.20
2017-08-29T17:40:12.072Z,61.00
2017-08-29T17:42:40.375Z,61.80
2017-08-29T17:45:08.635Z,62.20
2017-08-29T17:47:36.973Z,63.10
2017-08-29T17:50:05.253Z,63.80
2017-08-29T17:52:33.548Z,64.10
2017-08-29T17:55:01.819Z,63.80
2017-08-29T17:57:30.101Z,65.70
2017-08-29T17:59:58.376Z,66.30
2017-08-29T18:02:26.655Z,66.00
2017-08-29T18:04:54.909Z,66.30
2017-08-29T18:07:23.235Z,66.50
2017-08-29T18:09:51.459Z,67.00
2017-08-29T18:12:19.801Z,67.60
2017-08-29T18:14:48.079Z,67.50
2017-08-29T18:17:16.364Z,67.70
2017-08-29T18:19:44.693Z,68.00
2017-08-29T18:22:12.955Z,67.60
2017-08-29T18:24:41.291Z,67.00
2017-08-29T18:27:09.587Z,69.40
2017-08-29T18:29:38.688Z,70.10
2017-08-29T18:32:07.465Z,70.60
2017-08-29T18:34:35.725Z,71.00
2017-08-29T18:37:03.994Z,71.20
2017-08-29T18:39:32.283Z,71.30
2017-08-29T18:42:00.586Z,71.30
2017-08-29T18:44:28.975Z,71.80
2017-08-29T18:46:57.317Z,71.80
2017-08-29T18:49:25.645Z,71.50
2017-08-29T18:51:53.938Z,71.80
2017-08-29T18:54:22.261Z,72.80
2017-08-29T18:56:50.583Z,73.10
2017-08-29T18:59:18.869Z,74.60
2017-08-29T19:01:47.179Z,74.60
2017-08-29T19:04:15.486Z,75.40
2017-08-29T19:06:43.789Z,75.10
2017-08-29T19:09:12.096Z,75.30
2017-08-29T19:11:40.405Z,75.00
2017-08-29T19:14:08.829Z,75.10
2017-08-29T19:16:37.969Z,75.50
2017-08-29T19:19:06.260Z,75.90
2017-08-29T19:21:34.558Z,76.00
2017-08-29T19:24:03.575Z,76.40
2017-08-29T19:26:31.878Z,76.40
2017-08-29T19:29:00.154Z,76.60
2017-08-29T19:31:28.514Z,77.60
2017-08-29T19:33:56.772Z,78.00
2017-08-29T19:36:25.093Z,78.00
2017-08-29T19:38:54.239Z,77.80
2017-08-29T19:41:23.738Z,77.60
2017-08-29T19:43:52.574Z,77.70
2017-08-29T19:46:21.621Z,78.30
2017-08-29T19:48:51.163Z,78.30
2017-08-29T19:51:20.178Z,78.30
2017-08-29T19:53:48.531Z,78.80
2017-08-29T19:56:16.815Z,79.10
2017-08-29T19:58:45.089Z,79.30
2017-08-29T20:01:13.427Z,79.30
2017-08-29T20:03:41.729Z,79.60
2017-08-29T20:06:10.056Z,79.80
2017-08-29T20:08:38.314Z,80.30
2017-08-29T20:11:06.703Z,80.80
2017-08-29T20:13:34.985Z,81.00
2017-08-29T20:16:03.263Z,80.90
2017-08-29T20:18:31.567Z,80.70
2017-08-29T20:20:59.834Z,80.70
2017-08-29T20:23:28.125Z,80.70
2017-08-29T20:25:56.421Z,81.20
2017-08-29T20:28:24.704Z,81.30
2017-08-29T20:30:52.963Z,81.10
2017-08-29T20:33:21.271Z,81.40
2017-08-29T20:35:49.533Z,81.60
2017-08-29T20:38:17.848Z,81.70
2017-08-29T20:40:46.166Z,81.40
2017-08-29T20:43:14.505Z,81.40
2017-08-29T20:45:42.748Z,81.70
2017-08-29T20:48:11.067Z,81.40
2017-08-29T20:50:39.326Z,81.30
2017-08-29T20:53:07.610Z,81.60
2017-08-29T20:55:35.853Z,81.70
2017-08-29T20:58:04.127Z,81.80
2017-08-29T21:00:32.442Z,81.70
2017-08-29T21:03:01.639Z,81.80
2017-08-29T21:05:29.917Z,81.10
2017-08-29T21:07:58.220Z,80.90
2017-08-29T21:10:26.534Z,81.00
2017-08-29T21:12:54.789Z,81.20
2017-08-29T21:15:23.069Z,81.60
2017-08-29T21:17:51.361Z,82.10
2017-08-29T21:20:19.638Z,82.10
2017-08-29T21:22:47.867Z,82.20
2017-08-29T21:25:16.136Z,82.20
2017-08-29T21:27:44.421Z,82.30
2017-08-29T21:30:13.035Z,82.30
2017-08-29T21:32:41.298Z,81.70
2017-08-29T21:35:09.564Z,81.50
2017-08-29T21:37:37.853Z,81.40
2017-08-29T21:40:06.144Z,81.60
2017-08-29T21:42:34.379Z,81.90
2017-08-29T21:45:02.663Z,81.70
2017-08-29T21:47:30.942Z,81.90
2017-08-29T21:49:59.214Z,82.10
2017-08-29T21:52:27.593Z,82.00
2017-08-29T21:54:55.856Z,81.80
2017-08-29T21:57:24.073Z,81.60
2017-08-29T21:59:52.384Z,81.70
2017-08-29T22:02:20.634Z,81.90
2017-08-29T22:04:48.887Z,81.60
2017-08-29T22:07:17.184Z,81.60
2017-08-29T22:09:45.452Z,82.10
2017-08-29T22:12:13.707Z,82.70
2017-08-29T22:14:41.975Z,83.20
2017-08-29T22:17:10.246Z,83.60
2017-08-29T22:19:38.466Z,84.00
2017-08-29T22:22:06.721Z,83.90
2017-08-29T22:24:35.004Z,84.00
2017-08-29T22:27:03.267Z,84.10
2017-08-29T22:29:32.271Z,84.20
2017-08-29T22:32:00.563Z,84.20
2017-08-29T22:34:28.819Z,84.90
2017-08-29T22:36:57.086Z,85.00
2017-08-29T22:39:25.376Z,84.90
2017-08-29T22:41:53.624Z,84.30
2017-08-29T22:44:21.877Z,84.30
2017-08-29T22:46:50.147Z,84.40
2017-08-29T22:49:18.382Z,84.60
2017-08-29T22:51:46.647Z,84.60
2017-08-29T22:54:14.902Z,84.50
2017-08-29T22:59:40.481Z,84.60
2017-08-29T23:02:08.738Z,85.00
2017-08-29T23:04:36.984Z,85.00
2017-08-29T23:07:05.263Z,85.10
2017-08-29T23:09:33.527Z,84.90
2017-08-29T23:12:01.793Z,85.00
2017-08-29T23:14:30.033Z,85.00
2017-08-29T23:16:59.248Z,85.00
2017-08-29T23:19:27.514Z,84.90
2017-08-29T23:21:55.779Z,84.90
2017-08-29T23:24:24.082Z,85.20
2017-08-29T23:26:52.331Z,84.90
2017-08-29T23:29:20.599Z,84.90
2017-08-29T23:31:48.880Z,85.10
2017-08-29T23:34:17.161Z,84.80
2017-08-29T23:36:45.424Z,85.20
2017-08-29T23:39:13.696Z,84.70
2017-08-29T23:41:41.939Z,85.30
2017-08-29T23:44:10.187Z,85.50
2017-08-29T23:46:38.451Z,86.00
2017-08-29T23:49:06.712Z,85.90
2017-08-29T23:51:34.957Z,86.10
2017-08-29T23:54:03.211Z,86.30
2017-08-29T23:56:31.467Z,86.60
2017-08-29T23:58:59.719Z,86.10
